OOSKC EBAW-EBST
Flight info
| Callsign | OOSKC |
|---|---|
| Flight time | 0h 27m |
| Altitude | 3500 |
| Route | DCT DUFFY DCT |
| Aircraft | DA40/L-V/N |
Departure
| Time | 2026-05-07 15:19 |
|---|---|
| Airport | Antwerp International Airport (Deurne) (EBAW) |
Arrival
| Time | 2026-05-07 15:46 |
|---|---|
| Airport | Sint-Truiden / Brustem Airfield (EBST) |
| Time | Latitude | Longitude | Altitude | Speed | Heading |
|---|---|---|---|---|---|
| 2026-05-07 15:06 | 51.18716 | 4.45498 | 34 ft | 0 kts | 217° |
| 2026-05-07 15:12 | 51.18710 | 4.45491 | 34 ft | 4 kts | 217° |
| 2026-05-07 15:12 | 51.18713 | 4.45443 | 34 ft | 9 kts | 306° |
| 2026-05-07 15:12 | 51.18749 | 4.45429 | 34 ft | 8 kts | 42° |
| 2026-05-07 15:13 | 51.18790 | 4.45480 | 34 ft | 7 kts | 342° |
| 2026-05-07 15:13 | 51.18849 | 4.45455 | 34 ft | 10 kts | 343° |
| 2026-05-07 15:13 | 51.18913 | 4.45407 | 34 ft | 8 kts | 327° |
| 2026-05-07 15:13 | 51.18956 | 4.45406 | 34 ft | 7 kts | 50° |
| 2026-05-07 15:14 | 51.18998 | 4.45493 | 33 ft | 11 kts | 49° |
| 2026-05-07 15:14 | 51.19059 | 4.45483 | 32 ft | 15 kts | 319° |
| 2026-05-07 15:14 | 51.19080 | 4.45454 | 32 ft | 0 kts | 320° |
| 2026-05-07 15:17 | 51.19097 | 4.45432 | 32 ft | 10 kts | 322° |
| 2026-05-07 15:17 | 51.19181 | 4.45334 | 29 ft | 12 kts | 347° |
| 2026-05-07 15:17 | 51.19208 | 4.45379 | 29 ft | 0 kts | 111° |
| 2026-05-07 15:18 | 51.19165 | 4.45568 | 29 ft | 45 kts | 107° |
| 2026-05-07 15:18 | 51.19014 | 4.46194 | 123 ft | 66 kts | 114° |
| 2026-05-07 15:18 | 51.18835 | 4.46878 | 309 ft | 69 kts | 109° |
| 2026-05-07 15:19 | 51.18651 | 4.47610 | 495 ft | 72 kts | 125° |
| 2026-05-07 15:19 | 51.18177 | 4.47709 | 665 ft | 80 kts | 199° |
| 2026-05-07 15:19 | 51.17794 | 4.47148 | 888 ft | 80 kts | 266° |
| 2026-05-07 15:19 | 51.17943 | 4.46270 | 1111 ft | 83 kts | 291° |
| 2026-05-07 15:20 | 51.18071 | 4.45390 | 1307 ft | 90 kts | 256° |
| 2026-05-07 15:20 | 51.17587 | 4.44787 | 1518 ft | 95 kts | 197° |
| 2026-05-07 15:20 | 51.16938 | 4.44480 | 1719 ft | 97 kts | 197° |
| 2026-05-07 15:20 | 51.16297 | 4.44127 | 1919 ft | 98 kts | 198° |
| 2026-05-07 15:21 | 51.15664 | 4.43826 | 2079 ft | 103 kts | 197° |
| 2026-05-07 15:21 | 51.14975 | 4.43497 | 2162 ft | 103 kts | 196° |
| 2026-05-07 15:21 | 51.14239 | 4.43169 | 2076 ft | 114 kts | 195° |
| 2026-05-07 15:21 | 51.13450 | 4.42833 | 2057 ft | 116 kts | 185° |
| 2026-05-07 15:22 | 51.12766 | 4.43346 | 2048 ft | 117 kts | 130° |
| 2026-05-07 15:22 | 51.12233 | 4.44333 | 2001 ft | 117 kts | 133° |
| 2026-05-07 15:22 | 51.11664 | 4.45271 | 1980 ft | 116 kts | 135° |
| 2026-05-07 15:22 | 51.11101 | 4.46128 | 2038 ft | 111 kts | 137° |
| 2026-05-07 15:23 | 51.10522 | 4.46959 | 2015 ft | 113 kts | 136° |
| 2026-05-07 15:23 | 51.10015 | 4.47905 | 2004 ft | 114 kts | 123° |
| 2026-05-07 15:23 | 51.09431 | 4.48754 | 1954 ft | 116 kts | 150° |
| 2026-05-07 15:23 | 51.08787 | 4.49530 | 1932 ft | 116 kts | 126° |
| 2026-05-07 15:24 | 51.08575 | 4.50771 | 1853 ft | 119 kts | 97° |
| 2026-05-07 15:24 | 51.08483 | 4.51944 | 2096 ft | 99 kts | 97° |
| 2026-05-07 15:24 | 51.08432 | 4.52945 | 2355 ft | 90 kts | 92° |
| 2026-05-07 15:24 | 51.08402 | 4.53953 | 2495 ft | 96 kts | 92° |
| 2026-05-07 15:25 | 51.08346 | 4.54987 | 2742 ft | 94 kts | 94° |
| 2026-05-07 15:25 | 51.08300 | 4.56019 | 2955 ft | 92 kts | 92° |
| 2026-05-07 15:25 | 51.08263 | 4.57019 | 3189 ft | 89 kts | 91° |
| 2026-05-07 15:25 | 51.08248 | 4.58015 | 3381 ft | 92 kts | 89° |
| 2026-05-07 15:26 | 51.08255 | 4.59040 | 3441 ft | 97 kts | 88° |
| 2026-05-07 15:26 | 51.08273 | 4.60137 | 3442 ft | 104 kts | 88° |
| 2026-05-07 15:26 | 51.08291 | 4.61290 | 3482 ft | 104 kts | 89° |
| 2026-05-07 15:26 | 51.08293 | 4.62452 | 3528 ft | 104 kts | 89° |
| 2026-05-07 15:27 | 51.08306 | 4.63596 | 3571 ft | 105 kts | 89° |
| 2026-05-07 15:27 | 51.08280 | 4.64763 | 3603 ft | 106 kts | 101° |
| 2026-05-07 15:27 | 51.07984 | 4.65843 | 3602 ft | 109 kts | 129° |
| 2026-05-07 15:27 | 51.07484 | 4.66850 | 3499 ft | 118 kts | 128° |
| 2026-05-07 15:28 | 51.06971 | 4.67810 | 3568 ft | 112 kts | 131° |
| 2026-05-07 15:28 | 51.06443 | 4.68723 | 3584 ft | 112 kts | 130° |
| 2026-05-07 15:28 | 51.05949 | 4.69667 | 3580 ft | 113 kts | 128° |
| 2026-05-07 15:28 | 51.05464 | 4.70671 | 3582 ft | 115 kts | 127° |
| 2026-05-07 15:29 | 51.04971 | 4.71703 | 3506 ft | 120 kts | 126° |
| 2026-05-07 15:29 | 51.04472 | 4.72757 | 3519 ft | 115 kts | 127° |
| 2026-05-07 15:29 | 51.03991 | 4.73754 | 3523 ft | 116 kts | 126° |
| 2026-05-07 15:29 | 51.03491 | 4.74756 | 3517 ft | 115 kts | 130° |
| 2026-05-07 15:30 | 51.02969 | 4.75728 | 3511 ft | 116 kts | 130° |
| 2026-05-07 15:30 | 51.02429 | 4.76679 | 3532 ft | 115 kts | 133° |
| 2026-05-07 15:30 | 51.01879 | 4.77617 | 3488 ft | 118 kts | 127° |
| 2026-05-07 15:30 | 51.01334 | 4.78574 | 3500 ft | 115 kts | 139° |
| 2026-05-07 15:31 | 51.00645 | 4.79225 | 3502 ft | 116 kts | 155° |
| 2026-05-07 15:31 | 50.99904 | 4.79745 | 3487 ft | 117 kts | 156° |
| 2026-05-07 15:31 | 50.99144 | 4.80206 | 3497 ft | 117 kts | 160° |
| 2026-05-07 15:31 | 50.98387 | 4.80671 | 3498 ft | 117 kts | 158° |
| 2026-05-07 15:32 | 50.97620 | 4.81117 | 3509 ft | 117 kts | 160° |
| 2026-05-07 15:32 | 50.96867 | 4.81563 | 3536 ft | 115 kts | 159° |
| 2026-05-07 15:32 | 50.96109 | 4.81976 | 3523 ft | 117 kts | 161° |
| 2026-05-07 15:32 | 50.95347 | 4.82436 | 3496 ft | 118 kts | 155° |
| 2026-05-07 15:33 | 50.94615 | 4.82976 | 3546 ft | 114 kts | 154° |
| 2026-05-07 15:33 | 50.93878 | 4.83515 | 3499 ft | 118 kts | 156° |
| 2026-05-07 15:33 | 50.93119 | 4.83978 | 3482 ft | 118 kts | 159° |
| 2026-05-07 15:33 | 50.92349 | 4.84414 | 3466 ft | 118 kts | 159° |
| 2026-05-07 15:34 | 50.91579 | 4.84895 | 3429 ft | 119 kts | 154° |
| 2026-05-07 15:34 | 50.90833 | 4.85460 | 3408 ft | 119 kts | 154° |
| 2026-05-07 15:34 | 50.90089 | 4.86019 | 3438 ft | 117 kts | 154° |
| 2026-05-07 15:34 | 50.89356 | 4.86567 | 3462 ft | 117 kts | 154° |
| 2026-05-07 15:35 | 50.88613 | 4.87092 | 3502 ft | 115 kts | 157° |
| 2026-05-07 15:35 | 50.87863 | 4.87547 | 3484 ft | 117 kts | 161° |
| 2026-05-07 15:35 | 50.87072 | 4.87891 | 3455 ft | 119 kts | 162° |
| 2026-05-07 15:35 | 50.86281 | 4.88279 | 3435 ft | 119 kts | 162° |
| 2026-05-07 15:36 | 50.85487 | 4.88683 | 3408 ft | 120 kts | 162° |
| 2026-05-07 15:36 | 50.84694 | 4.89079 | 3443 ft | 117 kts | 161° |
| 2026-05-07 15:36 | 50.83929 | 4.89463 | 3447 ft | 118 kts | 163° |
| 2026-05-07 15:36 | 50.83151 | 4.89921 | 3418 ft | 118 kts | 155° |
| 2026-05-07 15:37 | 50.82421 | 4.90434 | 3413 ft | 113 kts | 155° |
| 2026-05-07 15:37 | 50.81755 | 4.91099 | 3232 ft | 114 kts | 140° |
| 2026-05-07 15:37 | 50.81180 | 4.91976 | 3035 ft | 115 kts | 133° |
| 2026-05-07 15:37 | 50.80633 | 4.92858 | 2897 ft | 113 kts | 135° |
| 2026-05-07 15:38 | 50.80060 | 4.93712 | 2710 ft | 114 kts | 133° |
| 2026-05-07 15:38 | 50.79517 | 4.94641 | 2535 ft | 114 kts | 133° |
| 2026-05-07 15:38 | 50.79013 | 4.95576 | 2452 ft | 109 kts | 126° |
| 2026-05-07 15:38 | 50.78595 | 4.96576 | 2295 ft | 109 kts | 122° |
| 2026-05-07 15:39 | 50.78183 | 4.97586 | 2157 ft | 110 kts | 122° |
| 2026-05-07 15:39 | 50.77769 | 4.98619 | 2014 ft | 109 kts | 123° |
| 2026-05-07 15:39 | 50.77329 | 4.99619 | 2001 ft | 113 kts | 119° |
| 2026-05-07 15:39 | 50.76982 | 5.00760 | 1975 ft | 116 kts | 113° |
| 2026-05-07 15:40 | 50.76663 | 5.01903 | 2027 ft | 114 kts | 115° |
| 2026-05-07 15:40 | 50.76336 | 5.03040 | 2044 ft | 115 kts | 113° |
| 2026-05-07 15:40 | 50.76019 | 5.04175 | 2107 ft | 112 kts | 114° |
| 2026-05-07 15:40 | 50.75643 | 5.05272 | 2066 ft | 117 kts | 116° |
| 2026-05-07 15:41 | 50.75313 | 5.06413 | 2081 ft | 118 kts | 112° |
| 2026-05-07 15:41 | 50.74951 | 5.07604 | 2090 ft | 118 kts | 115° |
| 2026-05-07 15:41 | 50.74638 | 5.08827 | 1993 ft | 125 kts | 101° |
| 2026-05-07 15:41 | 50.74483 | 5.10128 | 2019 ft | 118 kts | 100° |
| 2026-05-07 15:42 | 50.74333 | 5.11384 | 1994 ft | 118 kts | 102° |
| 2026-05-07 15:42 | 50.74371 | 5.12657 | 1945 ft | 119 kts | 61° |
| 2026-05-07 15:42 | 50.74758 | 5.13774 | 1966 ft | 112 kts | 60° |
| 2026-05-07 15:42 | 50.75127 | 5.14854 | 1846 ft | 112 kts | 62° |
| 2026-05-07 15:43 | 50.75478 | 5.15942 | 1735 ft | 109 kts | 63° |
| 2026-05-07 15:43 | 50.75838 | 5.16985 | 1610 ft | 103 kts | 60° |
| 2026-05-07 15:43 | 50.76188 | 5.17902 | 1440 ft | 94 kts | 59° |
| 2026-05-07 15:43 | 50.76500 | 5.18759 | 1322 ft | 93 kts | 58° |
| 2026-05-07 15:44 | 50.76847 | 5.19659 | 1299 ft | 99 kts | 56° |
| 2026-05-07 15:44 | 50.77219 | 5.20546 | 1296 ft | 90 kts | 54° |
| 2026-05-07 15:44 | 50.77571 | 5.21348 | 1295 ft | 89 kts | 53° |
| 2026-05-07 15:44 | 50.77917 | 5.22131 | 1311 ft | 87 kts | 52° |
| 2026-05-07 15:45 | 50.78283 | 5.22882 | 1314 ft | 87 kts | 47° |
| 2026-05-07 15:45 | 50.78795 | 5.23212 | 1232 ft | 88 kts | 338° |
| 2026-05-07 15:45 | 50.79351 | 5.22725 | 982 ft | 89 kts | 331° |
| 2026-05-07 15:45 | 50.79798 | 5.22152 | 728 ft | 79 kts | 292° |
| 2026-05-07 15:46 | 50.79346 | 5.20649 | 262 ft | 75 kts | 240° |
| 2026-05-07 15:46 | 50.79096 | 5.19993 | 228 ft | 56 kts | 243° |
| 2026-05-07 15:46 | 50.78971 | 5.19656 | 229 ft | 11 kts | 237° |
| 2026-05-07 15:47 | 50.78955 | 5.19596 | 231 ft | 4 kts | 155° |
| 2026-05-07 15:47 | 50.78975 | 5.19667 | 229 ft | 11 kts | 54° |
| 2026-05-07 15:47 | 50.79032 | 5.19813 | 228 ft | 18 kts | 57° |
| 2026-05-07 15:47 | 50.79094 | 5.19974 | 227 ft | 18 kts | 54° |
| 2026-05-07 15:48 | 50.79163 | 5.20151 | 228 ft | 19 kts | 60° |
| 2026-05-07 15:48 | 50.79233 | 5.20336 | 225 ft | 19 kts | 61° |
| 2026-05-07 15:48 | 50.79293 | 5.20495 | 225 ft | 14 kts | 58° |
| 2026-05-07 15:48 | 50.79337 | 5.20612 | 220 ft | 1 kts | 56° |
| 2026-05-07 15:49 | 50.79350 | 5.20587 | 219 ft | 6 kts | 298° |
| 2026-05-07 15:49 | 50.79401 | 5.20532 | 218 ft | 3 kts | 344° |
| 2026-05-07 15:49 | 50.79432 | 5.20589 | 218 ft | 4 kts | 60° |
| 2026-05-07 15:49 | 50.79433 | 5.20591 | 218 ft | 0 kts | 62° |